createdAt,value
2023-03-10T00:01:48.091Z,79.31
2023-03-10T00:04:18.826Z,79.20
2023-03-10T00:06:49.881Z,79.24
2023-03-10T00:09:20.532Z,79.21
2023-03-10T00:11:51.223Z,79.05
2023-03-10T00:14:21.842Z,79.10
2023-03-10T00:16:52.483Z,79.16
2023-03-10T00:19:23.183Z,79.41
2023-03-10T00:21:54.635Z,79.69
2023-03-10T00:24:25.238Z,79.78
2023-03-10T00:26:55.899Z,79.96
2023-03-10T00:29:26.619Z,80.00
2023-03-10T00:31:57.289Z,80.16
2023-03-10T00:34:27.894Z,80.07
2023-03-10T00:36:58.764Z,79.99
2023-03-10T00:39:29.416Z,79.90
2023-03-10T00:42:00.494Z,80.10
2023-03-10T00:44:29.552Z,79.89
2023-03-10T00:47:00.528Z,79.94
2023-03-10T00:49:31.157Z,80.03
2023-03-10T00:52:01.840Z,79.96
2023-03-10T00:54:32.817Z,80.04
2023-03-10T00:57:01.932Z,80.12
2023-03-10T00:59:47.806Z,80.33
2023-03-10T01:02:20.615Z,80.26
2023-03-10T01:04:51.274Z,80.33
2023-03-10T01:07:21.909Z,80.44
2023-03-10T01:09:52.556Z,80.41
2023-03-10T01:12:23.288Z,80.45
2023-03-10T01:14:53.921Z,80.52
2023-03-10T01:17:24.551Z,80.35
2023-03-10T01:19:55.245Z,80.63
2023-03-10T01:22:25.935Z,80.66
2023-03-10T01:24:56.573Z,80.88
2023-03-10T01:27:27.356Z,80.89
2023-03-10T01:29:58.026Z,80.97
2023-03-10T01:32:28.712Z,80.85
2023-03-10T01:34:59.388Z,80.75
2023-03-10T01:37:30.042Z,80.79
2023-03-10T01:40:02.069Z,80.90
2023-03-10T01:42:33.534Z,80.78
2023-03-10T01:45:30.616Z,80.80
2023-03-10T01:48:11.421Z,80.75
2023-03-10T01:50:43.114Z,80.50
2023-03-10T01:53:15.297Z,80.48
2023-03-10T01:55:51.991Z,80.51
2023-03-10T01:58:26.040Z,80.44
2023-03-10T02:00:56.964Z,80.66
2023-03-10T02:03:27.145Z,80.58
2023-03-10T02:06:01.084Z,80.67
2023-03-10T02:08:37.422Z,80.42
2023-03-10T02:11:08.218Z,80.46
2023-03-10T02:13:38.885Z,80.54
2023-03-10T02:16:10.356Z,80.63
2023-03-10T02:18:43.835Z,80.85
2023-03-10T02:21:24.844Z,80.87
2023-03-10T02:24:01.994Z,80.73
2023-03-10T02:26:44.938Z,80.87
2023-03-10T02:29:20.438Z,80.83
2023-03-10T02:31:52.817Z,80.79
2023-03-10T02:34:25.106Z,81.05
2023-03-10T02:36:56.258Z,81.22
2023-03-10T02:39:25.454Z,81.61
2023-03-10T02:41:56.603Z,81.44
2023-03-10T02:44:27.615Z,81.63
2023-03-10T02:46:56.648Z,81.61
2023-03-10T02:49:28.585Z,81.58
2023-03-10T02:52:00.733Z,81.69
2023-03-10T02:54:31.402Z,81.50
2023-03-10T02:57:02.094Z,81.61
2023-03-10T02:59:32.849Z,81.53
2023-03-10T03:02:03.473Z,81.55
2023-03-10T03:04:34.286Z,81.36
2023-03-10T03:07:05.006Z,81.36
2023-03-10T03:09:36.021Z,81.35
2023-03-10T03:12:10.954Z,81.39
2023-03-10T03:14:41.622Z,81.47
2023-03-10T03:17:12.481Z,81.43
2023-03-10T03:19:43.242Z,81.42
2023-03-10T03:22:13.912Z,81.36
2023-03-10T03:24:44.670Z,81.37
2023-03-10T03:27:15.296Z,81.41
2023-03-10T03:29:45.951Z,81.39
2023-03-10T03:32:16.860Z,81.19
2023-03-10T03:34:47.518Z,81.04
2023-03-10T03:37:18.158Z,81.00
2023-03-10T03:39:48.962Z,80.88
2023-03-10T03:42:19.607Z,80.68
2023-03-10T03:44:50.391Z,80.85
2023-03-10T03:47:20.989Z,80.92
2023-03-10T03:49:51.901Z,80.99
2023-03-10T03:52:22.535Z,81.28
2023-03-10T03:54:53.930Z,81.19
2023-03-10T03:57:24.601Z,81.26
2023-03-10T03:59:55.375Z,81.11
2023-03-10T04:02:26.073Z,81.10
2023-03-10T04:04:57.341Z,80.99
2023-03-10T04:07:27.996Z,80.98
2023-03-10T04:09:58.705Z,81.11
2023-03-10T04:12:29.419Z,81.08
2023-03-10T04:15:00.282Z,81.28
2023-03-10T04:17:30.961Z,81.05
2023-03-10T04:20:07.465Z,81.07
2023-03-10T04:22:38.828Z,81.02
2023-03-10T04:25:10.341Z,80.91
2023-03-10T04:27:41.014Z,80.80
2023-03-10T04:30:19.639Z,80.80
2023-03-10T04:32:50.416Z,80.70
2023-03-10T04:35:21.364Z,80.82
2023-03-10T04:37:52.038Z,80.71
2023-03-10T04:40:30.713Z,80.78
2023-03-10T04:43:01.450Z,80.95
2023-03-10T04:45:32.121Z,80.97
2023-03-10T04:48:02.749Z,80.91
2023-03-10T04:50:33.428Z,80.98
2023-03-10T04:53:04.047Z,80.99
2023-03-10T04:55:34.800Z,81.13
2023-03-10T04:58:05.422Z,81.02
2023-03-10T05:00:56.446Z,80.94
2023-03-10T05:03:27.335Z,81.13
2023-03-10T05:05:57.982Z,81.00
2023-03-10T05:08:28.721Z,81.23
2023-03-10T05:10:59.392Z,81.53
2023-03-10T05:13:31.819Z,81.45
2023-03-10T05:16:03.015Z,81.53
2023-03-10T05:18:32.130Z,81.33
2023-03-10T05:21:02.855Z,81.45
2023-03-10T05:23:33.608Z,81.34
2023-03-10T05:26:06.616Z,81.16
2023-03-10T05:28:37.989Z,81.25
2023-03-10T05:31:15.226Z,81.28
2023-03-10T05:33:45.936Z,81.10
2023-03-10T05:36:16.679Z,81.01
2023-03-10T05:38:47.587Z,81.21
2023-03-10T05:41:18.942Z,81.09
2023-03-10T05:43:49.608Z,81.17
2023-03-10T05:46:20.402Z,81.25
2023-03-10T05:48:51.242Z,81.21
2023-03-10T05:51:22.057Z,81.09
2023-03-10T05:53:52.713Z,81.17
2023-03-10T05:56:23.414Z,81.05
2023-03-10T05:58:54.140Z,80.97
2023-03-10T06:01:25.391Z,81.03
2023-03-10T06:03:56.120Z,81.12
2023-03-10T06:06:26.997Z,81.15
2023-03-10T06:08:58.008Z,81.25
2023-03-10T06:11:27.421Z,81.07
2023-03-10T06:13:58.143Z,81.08
2023-03-10T06:16:29.267Z,81.02
2023-03-10T06:19:00.153Z,81.10
2023-03-10T06:21:31.087Z,80.94
2023-03-10T06:24:01.678Z,80.86
2023-03-10T06:26:32.461Z,80.81
2023-03-10T06:29:03.419Z,80.80
2023-03-10T06:31:34.440Z,80.93
2023-03-10T06:34:04.635Z,80.94
2023-03-10T06:36:35.702Z,80.91
2023-03-10T06:39:06.525Z,80.89
2023-03-10T06:41:38.191Z,80.72
2023-03-10T06:44:08.838Z,80.87
2023-03-10T06:46:39.963Z,80.77
2023-03-10T06:49:09.002Z,80.94
2023-03-10T06:51:39.662Z,80.93
2023-03-10T06:54:10.278Z,80.92
2023-03-10T06:56:41.003Z,81.04
2023-03-10T06:59:12.172Z,81.05
2023-03-10T07:01:43.642Z,81.07
2023-03-10T07:04:14.491Z,81.20
2023-03-10T07:06:45.229Z,81.30
2023-03-10T07:09:16.446Z,81.17
2023-03-10T07:11:48.156Z,81.28
2023-03-10T07:14:18.888Z,81.44
2023-03-10T07:16:49.619Z,81.49
2023-03-10T07:19:22.946Z,81.39
2023-03-10T07:21:53.664Z,81.54
2023-03-10T07:24:24.363Z,81.58
2023-03-10T07:26:55.379Z,81.59
2023-03-10T07:29:26.021Z,82.01
2023-03-10T07:31:56.746Z,81.87
2023-03-10T07:34:27.519Z,82.06
2023-03-10T07:36:58.201Z,82.36
2023-03-10T07:39:29.091Z,82.45
2023-03-10T07:41:59.874Z,82.57
2023-03-10T07:44:31.172Z,82.75
2023-03-10T07:47:01.930Z,82.90
2023-03-10T07:49:32.536Z,82.83
2023-03-10T07:52:03.251Z,82.71
2023-03-10T07:54:33.882Z,82.73
2023-03-10T07:57:04.659Z,82.89
2023-03-10T07:59:35.649Z,82.73
2023-03-10T08:02:09.411Z,82.79
2023-03-10T08:04:40.711Z,82.68
2023-03-10T08:07:11.726Z,82.61
2023-03-10T08:09:42.702Z,82.64
2023-03-10T08:12:11.856Z,82.50
2023-03-10T08:14:42.482Z,82.62
2023-03-10T08:17:13.333Z,82.51
2023-03-10T08:19:44.171Z,82.51
2023-03-10T08:22:15.871Z,82.75
2023-03-10T08:24:47.072Z,82.49
2023-03-10T08:27:16.163Z,82.65
2023-03-10T08:29:46.783Z,82.81
2023-03-10T08:32:30.502Z,82.61
2023-03-10T08:35:03.990Z,82.80
2023-03-10T08:37:35.200Z,82.82
2023-03-10T08:40:09.016Z,82.88
2023-03-10T08:42:40.838Z,82.71
2023-03-10T08:45:13.082Z,82.55
2023-03-10T08:47:44.031Z,82.55
2023-03-10T08:50:14.794Z,82.67
2023-03-10T08:52:45.583Z,82.62
2023-03-10T08:55:16.544Z,82.54
2023-03-10T08:57:47.266Z,82.52
2023-03-10T09:00:20.019Z,82.49
2023-03-10T09:02:51.591Z,82.20
2023-03-10T09:05:23.980Z,82.23
2023-03-10T09:07:54.802Z,82.05
2023-03-10T09:10:25.472Z,82.19
2023-03-10T09:13:13.324Z,82.17
2023-03-10T09:15:45.082Z,82.02
2023-03-10T09:18:16.588Z,81.84
2023-03-10T09:20:47.395Z,81.79
2023-03-10T09:23:18.609Z,81.56
2023-03-10T09:25:49.378Z,81.64
2023-03-10T09:28:20.557Z,81.39
2023-03-10T09:30:51.259Z,81.47
2023-03-10T09:33:23.182Z,81.08
2023-03-10T09:36:05.839Z,80.97
2023-03-10T09:38:37.418Z,80.93
2023-03-10T09:41:21.110Z,80.92
2023-03-10T09:44:02.319Z,80.99
2023-03-10T09:46:45.431Z,80.82
2023-03-10T09:49:26.325Z,80.65
2023-03-10T09:51:57.093Z,80.88
2023-03-10T09:54:42.174Z,80.66
2023-03-10T09:57:18.149Z,80.55
2023-03-10T09:59:52.187Z,80.73
2023-03-10T10:02:27.831Z,80.74
2023-03-10T10:05:03.776Z,80.60
2023-03-10T10:07:43.794Z,80.96
2023-03-10T10:10:19.112Z,80.90
2023-03-10T10:12:52.260Z,80.62
2023-03-10T10:15:25.398Z,80.53
2023-03-10T10:18:17.818Z,80.12
2023-03-10T10:20:53.190Z,79.87
2023-03-10T10:23:29.174Z,79.67
2023-03-10T10:26:08.880Z,79.59
2023-03-10T10:28:44.394Z,79.33
2023-03-10T10:31:18.925Z,79.45
2023-03-10T10:33:58.409Z,79.24
2023-03-10T10:36:32.072Z,78.88
2023-03-10T10:39:04.939Z,78.63
2023-03-10T10:41:36.115Z,78.04
2023-03-10T10:44:15.654Z,78.33
2023-03-10T10:46:54.423Z,78.19
2023-03-10T10:49:27.169Z,78.21
2023-03-10T10:52:03.899Z,77.42
2023-03-10T10:54:41.912Z,77.43
2023-03-10T10:57:20.716Z,77.85
2023-03-10T10:59:51.582Z,77.14
2023-03-10T11:02:29.321Z,76.88
2023-03-10T11:05:12.925Z,76.85
2023-03-10T11:07:44.082Z,77.24
2023-03-10T11:10:16.682Z,76.68
2023-03-10T11:12:59.347Z,76.70
2023-03-10T11:15:34.898Z,76.10
2023-03-10T11:18:13.125Z,75.55
2023-03-10T11:20:54.869Z,74.15
2023-03-10T11:23:33.130Z,73.99
2023-03-10T11:26:13.681Z,73.60
2023-03-10T11:28:52.906Z,73.70
2023-03-10T11:31:39.189Z,72.18
2023-03-10T11:34:21.086Z,73.26
2023-03-10T11:37:04.836Z,73.66
2023-03-10T11:39:46.717Z,72.01
2023-03-10T11:42:27.464Z,72.06
2023-03-10T11:45:13.320Z,71.93
2023-03-10T11:47:53.089Z,71.74
2023-03-10T11:50:34.723Z,72.03
2023-03-10T11:53:14.632Z,73.05
2023-03-10T11:55:46.889Z,72.43
2023-03-10T11:58:24.558Z,72.36
2023-03-10T12:00:56.087Z,72.56
2023-03-10T12:03:42.416Z,71.48
2023-03-10T12:06:17.582Z,72.17
2023-03-10T12:08:52.456Z,72.16
2023-03-10T12:11:26.549Z,72.16
2023-03-10T12:14:00.980Z,72.40
2023-03-10T12:16:36.827Z,72.25
2023-03-10T12:19:07.882Z,72.00
2023-03-10T12:21:37.023Z,71.22
2023-03-10T12:24:45.021Z,71.17
2023-03-10T12:27:16.113Z,71.02
2023-03-10T12:29:47.160Z,70.65
2023-03-10T12:32:40.484Z,70.90
2023-03-10T12:35:42.209Z,70.45
2023-03-10T12:38:45.579Z,70.91
2023-03-10T12:41:52.361Z,70.35
2023-03-10T12:44:50.104Z,69.95
2023-03-10T12:47:29.166Z,69.68
2023-03-10T12:50:20.406Z,70.23
2023-03-10T12:52:59.565Z,69.95
2023-03-10T12:55:30.776Z,68.75
2023-03-10T12:58:10.373Z,69.11
2023-03-10T13:00:47.889Z,70.26
2023-03-10T13:03:29.517Z,69.95
2023-03-10T13:06:19.507Z,69.01
2023-03-10T13:08:53.483Z,69.78
2023-03-10T13:11:38.196Z,69.72
2023-03-10T13:14:13.582Z,69.57
2023-03-10T13:16:54.529Z,69.65
2023-03-10T13:19:27.132Z,69.16
2023-03-10T13:21:57.942Z,69.64
2023-03-10T13:24:30.836Z,69.23
2023-03-10T13:27:06.820Z,67.92
2023-03-10T13:29:37.914Z,68.35
2023-03-10T13:32:19.838Z,68.63
2023-03-10T13:34:50.537Z,68.77
2023-03-10T13:37:21.502Z,68.62
2023-03-10T13:39:52.579Z,68.64
2023-03-10T13:42:37.099Z,68.24
2023-03-10T13:45:24.112Z,68.43
2023-03-10T13:47:55.970Z,68.65
2023-03-10T13:50:26.669Z,67.60
2023-03-10T13:52:58.675Z,67.54
2023-03-10T13:55:38.774Z,67.65
2023-03-10T13:58:12.968Z,68.27
2023-03-10T14:00:43.740Z,68.42
2023-03-10T14:03:15.124Z,68.83
2023-03-10T14:05:47.662Z,68.99
2023-03-10T14:08:24.812Z,68.37
2023-03-10T14:11:15.517Z,68.46
2023-03-10T14:13:46.682Z,68.14
2023-03-10T14:16:17.337Z,68.34
2023-03-10T14:18:48.245Z,68.58
2023-03-10T14:21:52.380Z,68.56
2023-03-10T14:24:29.505Z,68.50
2023-03-10T14:27:02.180Z,68.37
2023-03-10T14:29:32.876Z,68.12
2023-03-10T14:32:03.968Z,67.93
2023-03-10T14:34:33.046Z,68.15
2023-03-10T14:37:03.642Z,67.68
2023-03-10T14:39:34.419Z,67.83
2023-03-10T14:42:04.051Z,68.07
2023-03-10T14:44:34.978Z,67.82
2023-03-10T14:47:04.664Z,67.44
2023-03-10T14:49:35.473Z,68.02
2023-03-10T14:52:10.621Z,68.12
2023-03-10T14:54:41.346Z,68.08
2023-03-10T14:57:14.942Z,67.95
2023-03-10T14:59:45.811Z,67.90
2023-03-10T15:02:22.306Z,68.18
2023-03-10T15:04:53.555Z,67.09
2023-03-10T15:07:24.299Z,66.96
2023-03-10T15:10:05.390Z,67.03
2023-03-10T15:12:42.665Z,67.61
2023-03-10T15:15:18.824Z,67.65
2023-03-10T15:17:50.162Z,67.91
2023-03-10T15:20:30.430Z,68.15
2023-03-10T15:23:01.416Z,68.30
2023-03-10T15:25:30.492Z,68.35
2023-03-10T15:28:01.549Z,68.27
2023-03-10T15:30:34.779Z,68.39
2023-03-10T15:33:05.621Z,68.19
2023-03-10T15:35:34.946Z,68.19
2023-03-10T15:38:05.833Z,68.57
2023-03-10T15:40:36.844Z,68.80
2023-03-10T15:43:09.393Z,68.65
2023-03-10T15:45:43.581Z,68.93
2023-03-10T15:48:15.225Z,68.97
2023-03-10T15:50:46.805Z,69.09
2023-03-10T15:53:17.656Z,69.22
2023-03-10T15:55:48.334Z,69.21
2023-03-10T15:58:19.080Z,69.11
2023-03-10T16:00:49.779Z,69.14
2023-03-10T16:03:19.119Z,69.76
2023-03-10T16:05:50.190Z,70.38
2023-03-10T16:08:20.930Z,70.79
2023-03-10T16:10:55.063Z,71.24
2023-03-10T16:13:25.728Z,72.20
2023-03-10T16:15:56.528Z,73.03
2023-03-10T16:18:27.855Z,73.24
2023-03-10T16:20:57.824Z,73.35
2023-03-10T16:23:30.806Z,73.65
2023-03-10T16:26:10.222Z,73.61
2023-03-10T16:28:43.238Z,73.93
2023-03-10T16:31:16.267Z,73.50
2023-03-10T16:33:47.758Z,74.02
2023-03-10T16:36:21.038Z,75.10
2023-03-10T16:38:52.322Z,75.61
2023-03-10T16:41:23.777Z,75.68
2023-03-10T16:43:54.442Z,76.23
2023-03-10T16:46:26.854Z,76.45
2023-03-10T16:48:58.835Z,76.43
2023-03-10T16:51:31.325Z,76.55
2023-03-10T16:54:04.377Z,76.25
2023-03-10T16:56:37.608Z,75.91
2023-03-10T16:59:11.270Z,76.55
2023-03-10T17:01:42.074Z,76.43
2023-03-10T17:04:12.964Z,76.40
2023-03-10T17:06:42.514Z,76.90
2023-03-10T17:09:15.505Z,78.21
2023-03-10T17:11:48.588Z,77.85
2023-03-10T17:14:20.489Z,77.41
2023-03-10T17:16:54.822Z,77.33
2023-03-10T17:19:25.901Z,77.48
2023-03-10T17:22:00.142Z,77.21
2023-03-10T17:24:31.047Z,78.52
2023-03-10T17:27:01.950Z,78.05
2023-03-10T17:29:33.081Z,78.15
2023-03-10T17:32:04.034Z,77.96
2023-03-10T17:34:33.269Z,79.01
2023-03-10T17:37:04.207Z,78.75
2023-03-10T17:39:35.470Z,78.70
2023-03-10T17:42:06.904Z,79.16
2023-03-10T17:44:37.894Z,80.80
2023-03-10T17:47:08.975Z,80.63
2023-03-10T17:49:39.828Z,80.57
2023-03-10T17:52:09.161Z,81.03
2023-03-10T17:54:40.778Z,81.93
2023-03-10T17:57:11.763Z,80.74
2023-03-10T17:59:42.936Z,81.53
2023-03-10T18:02:12.417Z,81.28
2023-03-10T18:04:43.398Z,81.57
2023-03-10T18:07:14.293Z,81.23
2023-03-10T18:09:44.979Z,81.44
2023-03-10T18:12:15.872Z,80.22
2023-03-10T18:14:46.666Z,80.51
2023-03-10T18:17:40.286Z,80.13
2023-03-10T18:20:13.720Z,80.08
2023-03-10T18:22:44.985Z,79.96
2023-03-10T18:25:15.922Z,79.86
2023-03-10T18:27:47.076Z,79.81
2023-03-10T18:30:18.742Z,79.82
2023-03-10T18:32:50.234Z,79.80
2023-03-10T18:35:21.141Z,79.88
2023-03-10T18:37:51.993Z,80.20
2023-03-10T18:40:23.097Z,80.00
2023-03-10T18:42:54.026Z,81.03
2023-03-10T18:45:25.627Z,81.49
2023-03-10T18:47:56.753Z,81.21
2023-03-10T18:50:27.998Z,81.39
2023-03-10T18:52:59.185Z,81.50
2023-03-10T18:55:30.076Z,81.90
2023-03-10T18:58:01.166Z,81.62
2023-03-10T19:00:32.240Z,81.71
2023-03-10T19:03:01.803Z,81.42
2023-03-10T19:05:32.719Z,81.37
2023-03-10T19:08:03.958Z,81.33
2023-03-10T19:10:35.425Z,81.06
2023-03-10T19:13:08.041Z,81.10
2023-03-10T19:15:39.720Z,81.15
2023-03-10T19:18:10.893Z,81.12
2023-03-10T19:20:42.000Z,81.11
2023-03-10T19:23:13.393Z,81.05
2023-03-10T19:25:44.702Z,80.86
2023-03-10T19:28:16.201Z,80.79
2023-03-10T19:30:47.228Z,80.72
2023-03-10T19:33:18.400Z,80.97
2023-03-10T19:35:49.323Z,80.68
2023-03-10T19:38:19.103Z,80.74
2023-03-10T19:40:50.199Z,80.68
2023-03-10T19:43:21.244Z,80.78
2023-03-10T19:45:50.486Z,80.95
2023-03-10T19:48:21.624Z,81.18
2023-03-10T19:50:55.724Z,81.08
2023-03-10T19:53:28.427Z,80.96
2023-03-10T19:56:00.557Z,81.12
2023-03-10T19:58:32.119Z,81.45
2023-03-10T20:01:02.793Z,81.06
2023-03-10T20:03:33.794Z,81.10
2023-03-10T20:06:02.932Z,81.37
2023-03-10T20:08:33.719Z,81.37
2023-03-10T20:11:06.808Z,81.33
2023-03-10T20:13:36.325Z,81.32
2023-03-10T20:16:09.651Z,81.41
2023-03-10T20:18:40.436Z,81.71
2023-03-10T20:21:11.180Z,81.75
2023-03-10T20:23:41.952Z,81.76
2023-03-10T20:26:12.654Z,81.96
2023-03-10T20:28:43.730Z,81.67
2023-03-10T20:31:19.058Z,81.69
2023-03-10T20:33:50.192Z,81.70
2023-03-10T20:36:19.268Z,81.73
2023-03-10T20:38:49.888Z,81.65
2023-03-10T20:41:20.822Z,81.65
2023-03-10T20:43:50.058Z,81.74
2023-03-10T20:46:21.105Z,81.74
2023-03-10T20:48:51.821Z,81.73
2023-03-10T20:51:23.065Z,81.60
2023-03-10T20:53:53.682Z,81.42
2023-03-10T20:56:24.391Z,81.45
2023-03-10T20:58:55.116Z,81.35
2023-03-10T21:01:26.713Z,81.36
2023-03-10T21:03:57.859Z,81.33
2023-03-10T21:06:27.043Z,81.34
2023-03-10T21:08:57.759Z,81.41
2023-03-10T21:11:29.270Z,81.45
2023-03-10T21:13:59.978Z,81.64
2023-03-10T21:16:30.706Z,81.62
2023-03-10T21:19:01.671Z,81.82
2023-03-10T21:21:32.329Z,81.85
2023-03-10T21:24:04.776Z,81.87
2023-03-10T21:26:35.574Z,82.33
2023-03-10T21:29:06.259Z,82.17
2023-03-10T21:31:36.965Z,82.30
2023-03-10T21:34:07.689Z,82.27
2023-03-10T21:36:38.462Z,82.47
2023-03-10T21:39:09.655Z,82.19
2023-03-10T21:41:40.484Z,82.24
2023-03-10T21:44:12.633Z,82.30
2023-03-10T21:46:43.535Z,82.15
2023-03-10T21:49:14.318Z,82.11
2023-03-10T21:51:45.047Z,82.13
2023-03-10T21:54:15.702Z,82.12
2023-03-10T21:56:46.376Z,82.12
2023-03-10T21:59:17.086Z,82.08
2023-03-10T22:01:47.795Z,82.00
2023-03-10T22:04:18.724Z,82.00
2023-03-10T22:06:49.394Z,82.16
2023-03-10T22:09:20.061Z,82.12
2023-03-10T22:11:50.856Z,82.10
2023-03-10T22:14:24.040Z,82.07
2023-03-10T22:16:55.263Z,82.13
2023-03-10T22:19:25.915Z,82.17
2023-03-10T22:21:56.611Z,82.12
2023-03-10T22:24:27.337Z,82.11
2023-03-10T22:26:58.424Z,82.23
2023-03-10T22:29:27.516Z,82.19
2023-03-10T22:31:58.173Z,82.24
2023-03-10T22:34:29.106Z,82.20
2023-03-10T22:36:58.602Z,82.21
2023-03-10T22:39:29.254Z,82.20
2023-03-10T22:41:59.955Z,82.23
2023-03-10T22:44:35.679Z,82.22
2023-03-10T22:47:07.068Z,82.23
2023-03-10T22:49:40.239Z,82.20
2023-03-10T22:52:10.966Z,82.09
2023-03-10T22:54:41.661Z,82.01
2023-03-10T22:57:12.323Z,82.08
2023-03-10T22:59:43.023Z,81.99
2023-03-10T23:02:13.706Z,82.08
2023-03-10T23:04:44.365Z,82.04
2023-03-10T23:07:15.405Z,82.06
2023-03-10T23:09:46.112Z,82.03
2023-03-10T23:12:16.824Z,82.05
2023-03-10T23:14:47.462Z,81.90
2023-03-10T23:17:18.147Z,81.98
2023-03-10T23:19:48.770Z,81.96
2023-03-10T23:22:19.502Z,82.00
2023-03-10T23:24:50.213Z,82.08
2023-03-10T23:27:20.937Z,82.11
2023-03-10T23:29:51.545Z,82.08
2023-03-10T23:32:22.303Z,82.08
2023-03-10T23:34:53.015Z,82.02
2023-03-10T23:37:23.726Z,82.04
2023-03-10T23:39:54.591Z,81.93
2023-03-10T23:42:25.404Z,81.98
2023-03-10T23:44:56.054Z,81.96
2023-03-10T23:47:26.838Z,81.97
2023-03-10T23:49:58.272Z,82.06
2023-03-10T23:52:29.300Z,81.97
2023-03-10T23:54:58.727Z,81.97
2023-03-10T23:57:29.459Z,82.05
